createdAt,value
2023-03-22T00:00:15.352Z,6.28
2023-03-22T00:01:16.201Z,6.28
2023-03-22T00:02:17.123Z,6.27
2023-03-22T00:03:17.977Z,6.22
2023-03-22T00:04:18.868Z,6.21
2023-03-22T00:05:19.782Z,6.19
2023-03-22T00:06:20.625Z,6.21
2023-03-22T00:07:21.508Z,6.17
2023-03-22T00:08:22.389Z,6.18
2023-03-22T00:09:23.264Z,6.15
2023-03-22T00:10:24.164Z,6.12
2023-03-22T00:11:25.037Z,6.11
2023-03-22T00:12:25.930Z,6.08
2023-03-22T00:13:26.837Z,6.06
2023-03-22T00:14:27.700Z,6.04
2023-03-22T00:15:28.565Z,6.04
2023-03-22T00:16:29.496Z,6.01
2023-03-22T00:17:30.340Z,6.00
2023-03-22T00:18:31.227Z,5.99
2023-03-22T00:19:32.111Z,5.97
2023-03-22T00:20:32.999Z,5.97
2023-03-22T00:21:33.875Z,5.96
2023-03-22T00:22:34.802Z,5.93
2023-03-22T00:23:35.677Z,5.90
2023-03-22T00:24:36.571Z,5.90
2023-03-22T00:25:37.443Z,5.89
2023-03-22T00:26:38.330Z,5.89
2023-03-22T00:27:39.221Z,5.85
2023-03-22T00:28:40.132Z,5.83
2023-03-22T00:29:40.985Z,5.82
2023-03-22T00:30:41.868Z,5.81
2023-03-22T00:31:42.822Z,5.78
2023-03-22T00:32:43.674Z,5.76
2023-03-22T00:33:44.550Z,5.75
2023-03-22T00:34:45.443Z,5.74
2023-03-22T00:35:46.356Z,5.74
2023-03-22T00:36:47.197Z,5.72
2023-03-22T00:37:48.088Z,5.68
2023-03-22T00:38:48.972Z,5.71
2023-03-22T00:39:49.858Z,5.68
2023-03-22T00:40:50.748Z,5.67
2023-03-22T00:41:51.621Z,5.71
2023-03-22T00:42:52.514Z,5.68
2023-03-22T00:43:53.416Z,5.68
2023-03-22T00:44:54.272Z,5.65
2023-03-22T00:45:55.159Z,5.63
2023-03-22T00:46:56.035Z,5.60
2023-03-22T00:47:57.069Z,5.56
2023-03-22T00:48:57.407Z,5.53
2023-03-22T00:49:58.279Z,5.48
2023-03-22T00:50:59.158Z,5.42
2023-03-22T00:52:00.039Z,5.42
2023-03-22T00:53:00.948Z,5.42
2023-03-22T00:54:01.824Z,5.38
2023-03-22T00:55:02.719Z,5.36
2023-03-22T00:56:03.589Z,5.36
2023-03-22T00:57:04.471Z,5.31
2023-03-22T00:58:05.357Z,5.30
2023-03-22T00:59:06.260Z,5.28
2023-03-22T01:00:07.124Z,5.27
2023-03-22T01:01:08.176Z,5.25
2023-03-22T01:02:08.538Z,5.24
2023-03-22T01:03:09.450Z,5.24
2023-03-22T01:04:10.313Z,5.25
2023-03-22T01:05:11.208Z,5.27
2023-03-22T01:06:12.075Z,5.27
2023-03-22T01:07:12.961Z,5.30
2023-03-22T01:08:13.854Z,5.35
2023-03-22T01:09:14.781Z,5.36
2023-03-22T01:10:15.640Z,5.40
2023-03-22T01:11:16.529Z,5.43
2023-03-22T01:12:17.407Z,5.45
2023-03-22T01:13:18.295Z,5.46
2023-03-22T01:14:19.219Z,5.48
2023-03-22T01:15:20.145Z,5.51
2023-03-22T01:16:21.058Z,5.49
2023-03-22T01:17:21.932Z,5.49
2023-03-22T01:18:22.805Z,5.51
2023-03-22T01:19:23.694Z,5.49
2023-03-22T01:20:24.571Z,5.45
2023-03-22T01:21:25.451Z,5.45
2023-03-22T01:22:25.974Z,5.43
2023-03-22T01:23:26.883Z,5.40
2023-03-22T01:24:27.778Z,5.38
2023-03-22T01:25:28.652Z,5.38
2023-03-22T01:26:29.550Z,5.33
2023-03-22T01:27:30.430Z,5.33
2023-03-22T01:28:31.319Z,5.30
2023-03-22T01:29:32.240Z,5.28
2023-03-22T01:30:33.200Z,5.28
2023-03-22T01:31:34.049Z,5.27
2023-03-22T01:32:34.931Z,5.24
2023-03-22T01:33:35.827Z,5.21
2023-03-22T01:34:36.731Z,5.20
2023-03-22T01:35:37.657Z,5.17
2023-03-22T01:36:38.503Z,5.18
2023-03-22T01:37:39.386Z,5.17
2023-03-22T01:38:40.290Z,5.15
2023-03-22T01:39:41.186Z,5.15
2023-03-22T01:40:42.576Z,5.15
2023-03-22T01:41:43.053Z,5.12
2023-03-22T01:42:43.929Z,5.17
2023-03-22T01:43:44.825Z,5.17
2023-03-22T01:44:45.732Z,5.18
2023-03-22T01:45:46.681Z,5.20
2023-03-22T01:46:47.548Z,5.18
2023-03-22T01:47:48.460Z,5.20
2023-03-22T01:48:49.394Z,5.20
2023-03-22T01:49:50.237Z,5.24
2023-03-22T01:50:51.104Z,5.25
2023-03-22T01:51:51.984Z,5.25
2023-03-22T01:52:52.872Z,5.24
2023-03-22T01:53:53.760Z,5.22
2023-03-22T01:54:54.676Z,5.18
2023-03-22T01:55:55.594Z,5.18
2023-03-22T01:56:56.466Z,5.18
2023-03-22T01:57:57.350Z,5.20
2023-03-22T01:58:58.246Z,5.18
2023-03-22T01:59:59.155Z,5.15
2023-03-22T02:01:00.075Z,5.18
2023-03-22T02:02:00.912Z,5.17
2023-03-22T02:03:01.873Z,5.13
2023-03-22T02:04:02.738Z,5.15
2023-03-22T02:05:03.596Z,5.13
2023-03-22T02:06:04.494Z,5.12
2023-03-22T02:07:05.370Z,5.10
2023-03-22T02:08:06.248Z,5.10
2023-03-22T02:09:07.140Z,5.10
2023-03-22T02:10:08.026Z,5.07
2023-03-22T02:11:08.910Z,5.07
2023-03-22T02:12:09.802Z,5.06
2023-03-22T02:13:10.670Z,5.03
2023-03-22T02:14:11.564Z,5.03
2023-03-22T02:15:12.474Z,5.02
2023-03-22T02:16:13.426Z,5.02
2023-03-22T02:17:14.271Z,5.00
2023-03-22T02:18:15.150Z,5.00
2023-03-22T02:19:16.049Z,4.99
2023-03-22T02:20:16.924Z,5.00
2023-03-22T02:21:17.805Z,5.00
2023-03-22T02:22:18.695Z,4.99
2023-03-22T02:23:19.596Z,4.97
2023-03-22T02:24:20.469Z,4.99
2023-03-22T02:25:21.365Z,4.99
2023-03-22T02:26:22.235Z,4.99
2023-03-22T02:27:23.116Z,4.99
2023-03-22T02:28:24.000Z,4.97
2023-03-22T02:29:24.904Z,4.99
2023-03-22T02:30:25.819Z,4.94
2023-03-22T02:31:26.716Z,4.94
2023-03-22T02:32:27.557Z,4.96
2023-03-22T02:33:28.440Z,4.91
2023-03-22T02:34:29.331Z,4.92
2023-03-22T02:35:30.287Z,4.89
2023-03-22T02:36:31.132Z,4.89
2023-03-22T02:37:32.023Z,4.89
2023-03-22T02:38:32.911Z,4.91
2023-03-22T02:39:33.786Z,4.89
2023-03-22T02:40:34.672Z,4.91
2023-03-22T02:41:35.564Z,4.91
2023-03-22T02:42:36.518Z,4.89
2023-03-22T02:43:37.415Z,4.92
2023-03-22T02:44:38.302Z,4.94
2023-03-22T02:45:39.203Z,4.94
2023-03-22T02:46:40.136Z,4.96
2023-03-22T02:47:41.086Z,5.00
2023-03-22T02:48:41.925Z,4.99
2023-03-22T02:49:42.845Z,4.99
2023-03-22T02:50:43.700Z,4.99
2023-03-22T02:51:44.585Z,4.97
2023-03-22T02:52:45.459Z,4.99
2023-03-22T02:53:46.343Z,4.97
2023-03-22T02:54:47.220Z,4.96
2023-03-22T02:55:48.109Z,4.94
2023-03-22T02:56:48.989Z,4.96
2023-03-22T02:57:49.868Z,4.92
2023-03-22T02:58:50.745Z,4.89
2023-03-22T02:59:51.634Z,4.86
2023-03-22T03:00:52.556Z,4.82
2023-03-22T03:01:53.453Z,4.78
2023-03-22T03:02:54.279Z,4.73
2023-03-22T03:03:55.165Z,4.69
2023-03-22T03:04:56.061Z,4.66
2023-03-22T03:05:56.947Z,4.65
2023-03-22T03:06:57.809Z,4.63
2023-03-22T03:07:58.702Z,4.63
2023-03-22T03:08:59.592Z,4.60
2023-03-22T03:10:00.484Z,4.59
2023-03-22T03:11:01.382Z,4.55
2023-03-22T03:12:02.247Z,4.54
2023-03-22T03:13:03.121Z,4.58
2023-03-22T03:14:04.012Z,4.55
2023-03-22T03:15:04.896Z,4.55
2023-03-22T03:16:05.826Z,4.59
2023-03-22T03:17:06.673Z,4.58
2023-03-22T03:18:07.557Z,4.60
2023-03-22T03:19:08.439Z,4.62
2023-03-22T03:20:09.342Z,4.59
2023-03-22T03:21:10.218Z,4.62
2023-03-22T03:22:11.097Z,4.63
2023-03-22T03:23:11.970Z,4.65
2023-03-22T03:24:12.852Z,4.65
2023-03-22T03:25:13.736Z,4.65
2023-03-22T03:26:14.628Z,4.65
2023-03-22T03:27:15.501Z,4.65
2023-03-22T03:28:16.387Z,4.63
2023-03-22T03:29:17.276Z,4.65
2023-03-22T03:30:18.172Z,4.65
2023-03-22T03:31:19.088Z,4.63
2023-03-22T03:32:19.936Z,4.65
2023-03-22T03:33:20.816Z,4.66
2023-03-22T03:34:21.680Z,4.65
2023-03-22T03:35:22.795Z,4.66
2023-03-22T03:36:23.227Z,4.66
2023-03-22T03:37:24.097Z,4.65
2023-03-22T03:38:24.997Z,4.63
2023-03-22T03:39:25.872Z,4.63
2023-03-22T03:40:26.756Z,4.65
2023-03-22T03:41:27.634Z,4.65
2023-03-22T03:42:28.512Z,4.65
2023-03-22T03:43:29.407Z,4.66
2023-03-22T03:44:30.278Z,4.63
2023-03-22T03:45:31.180Z,4.63
2023-03-22T03:46:32.074Z,4.65
2023-03-22T03:47:32.917Z,4.60
2023-03-22T03:48:33.806Z,4.60
2023-03-22T03:49:34.684Z,4.60
2023-03-22T03:50:35.579Z,4.58
2023-03-22T03:51:36.448Z,4.55
2023-03-22T03:52:37.171Z,4.55
2023-03-22T03:53:38.057Z,4.55
2023-03-22T03:54:38.925Z,4.52
2023-03-22T03:55:39.817Z,4.52
2023-03-22T03:56:40.691Z,4.50
2023-03-22T03:57:41.564Z,4.48
2023-03-22T03:58:42.455Z,4.48
2023-03-22T03:59:43.104Z,4.48
2023-03-22T04:00:43.990Z,4.44
2023-03-22T04:01:44.904Z,4.40
2023-03-22T04:02:45.753Z,4.34
2023-03-22T04:03:46.627Z,4.33
2023-03-22T04:04:47.535Z,4.33
2023-03-22T04:05:48.420Z,4.30
2023-03-22T04:06:49.293Z,4.29
2023-03-22T04:07:50.186Z,4.30
2023-03-22T04:08:51.060Z,4.29
2023-03-22T04:09:51.937Z,4.27
2023-03-22T04:10:52.827Z,4.26
2023-03-22T04:11:53.698Z,4.24
2023-03-22T04:12:54.579Z,4.26
2023-03-22T04:13:55.476Z,4.23
2023-03-22T04:14:56.348Z,4.20
2023-03-22T04:15:57.259Z,4.22
2023-03-22T04:16:58.177Z,4.22
2023-03-22T04:17:58.995Z,4.18
2023-03-22T04:18:59.876Z,4.16
2023-03-22T04:20:00.784Z,4.14
2023-03-22T04:21:01.645Z,4.12
2023-03-22T04:22:02.537Z,4.11
2023-03-22T04:23:03.408Z,4.09
2023-03-22T04:24:04.293Z,4.05
2023-03-22T04:25:05.174Z,4.06
2023-03-22T04:26:06.068Z,4.05
2023-03-22T04:27:06.949Z,4.00
2023-03-22T04:28:07.821Z,3.98
2023-03-22T04:29:08.718Z,3.94
2023-03-22T04:30:09.601Z,3.91
2023-03-22T04:31:10.573Z,3.90
2023-03-22T04:32:11.457Z,3.87
2023-03-22T04:33:12.333Z,3.87
2023-03-22T04:34:13.192Z,3.86
2023-03-22T04:35:14.074Z,3.86
2023-03-22T04:36:14.957Z,3.86
2023-03-22T04:37:15.856Z,3.83
2023-03-22T04:38:16.721Z,3.80
2023-03-22T04:39:17.604Z,3.79
2023-03-22T04:40:18.496Z,3.76
2023-03-22T04:41:19.381Z,3.70
2023-03-22T04:42:20.254Z,3.66
2023-03-22T04:43:21.160Z,3.62
2023-03-22T04:44:22.025Z,3.58
2023-03-22T04:45:22.904Z,3.57
2023-03-22T04:46:23.840Z,3.52
2023-03-22T04:47:24.710Z,3.51
2023-03-22T04:48:25.561Z,3.45
2023-03-22T04:49:26.449Z,3.43
2023-03-22T04:50:27.326Z,3.39
2023-03-22T04:51:28.225Z,3.36
2023-03-22T04:52:29.092Z,3.33
2023-03-22T04:53:29.974Z,3.31
2023-03-22T04:54:30.862Z,3.31
2023-03-22T04:55:31.694Z,3.24
2023-03-22T04:56:32.591Z,3.24
2023-03-22T04:57:33.424Z,3.21
2023-03-22T04:58:34.244Z,3.23
2023-03-22T04:59:35.124Z,3.21
2023-03-22T05:00:35.958Z,3.21
2023-03-22T05:01:36.825Z,3.18
2023-03-22T05:02:39.984Z,3.18
2023-03-22T05:03:38.484Z,3.17
2023-03-22T05:04:39.313Z,3.17
2023-03-22T05:05:40.169Z,3.15
2023-03-22T05:06:41.007Z,3.13
2023-03-22T05:07:41.840Z,3.13
2023-03-22T05:08:42.659Z,3.13
2023-03-22T05:09:43.488Z,3.13
2023-03-22T05:10:44.336Z,3.11
2023-03-22T05:11:45.175Z,3.10
2023-03-22T05:12:46.010Z,3.10
2023-03-22T05:13:46.841Z,3.08
2023-03-22T05:14:47.736Z,3.08
2023-03-22T05:15:48.593Z,3.10
2023-03-22T05:16:49.373Z,3.08
2023-03-22T05:17:50.216Z,3.10
2023-03-22T05:18:51.021Z,3.10
2023-03-22T05:19:51.879Z,3.13
2023-03-22T05:20:52.675Z,3.11
2023-03-22T05:21:53.511Z,3.10
2023-03-22T05:22:54.333Z,3.08
2023-03-22T05:23:55.160Z,3.08
2023-03-22T05:24:55.981Z,3.03
2023-03-22T05:25:56.816Z,3.02
2023-03-22T05:26:57.651Z,3.00
2023-03-22T05:27:58.487Z,2.96
2023-03-22T05:28:59.300Z,2.95
2023-03-22T05:30:00.176Z,2.92
2023-03-22T05:31:00.964Z,2.87
2023-03-22T05:32:01.825Z,2.84
2023-03-22T05:33:02.647Z,2.79
2023-03-22T05:34:03.463Z,2.81
2023-03-22T05:35:04.290Z,2.78
2023-03-22T05:36:05.109Z,2.78
2023-03-22T05:37:05.954Z,2.77
2023-03-22T05:38:06.792Z,2.74
2023-03-22T05:39:07.617Z,2.72
2023-03-22T05:40:08.435Z,2.69
2023-03-22T05:41:09.253Z,2.69
2023-03-22T05:42:10.093Z,2.71
2023-03-22T05:43:10.951Z,2.71
2023-03-22T05:44:11.786Z,2.74
2023-03-22T05:45:12.608Z,2.74
2023-03-22T05:46:13.492Z,2.74
2023-03-22T05:47:14.351Z,2.72
2023-03-22T05:48:15.234Z,2.72
2023-03-22T05:49:16.008Z,2.74
2023-03-22T05:50:16.837Z,2.72
2023-03-22T05:51:17.747Z,2.69
2023-03-22T05:52:18.527Z,2.67
2023-03-22T05:53:19.346Z,2.71
2023-03-22T05:54:20.174Z,2.69
2023-03-22T05:55:20.998Z,2.71
2023-03-22T05:56:21.857Z,2.72
2023-03-22T05:57:22.344Z,2.74
2023-03-22T05:58:23.173Z,2.74
2023-03-22T05:59:23.994Z,2.74
2023-03-22T06:00:24.828Z,2.75
2023-03-22T06:01:25.661Z,2.75
2023-03-22T06:02:26.501Z,2.77
2023-03-22T06:03:27.440Z,2.75
2023-03-22T06:04:28.222Z,2.74
2023-03-22T06:05:29.041Z,2.74
2023-03-22T06:06:29.901Z,2.72
2023-03-22T06:07:30.702Z,2.72
2023-03-22T06:08:31.545Z,2.72
2023-03-22T06:09:32.365Z,2.72
2023-03-22T06:10:33.190Z,2.71
2023-03-22T06:11:34.022Z,2.67
2023-03-22T06:12:34.850Z,2.69
2023-03-22T06:13:35.678Z,2.67
2023-03-22T06:14:36.516Z,2.66
2023-03-22T06:15:37.333Z,2.66
2023-03-22T06:16:38.231Z,2.61
2023-03-22T06:17:39.036Z,2.63
2023-03-22T06:18:39.879Z,2.63
2023-03-22T06:19:40.692Z,2.61
2023-03-22T06:20:42.049Z,2.59
2023-03-22T06:21:42.497Z,2.59
2023-03-22T06:22:43.317Z,2.57
2023-03-22T06:23:44.144Z,2.56
2023-03-22T06:24:44.965Z,2.56
2023-03-22T06:25:45.790Z,2.57
2023-03-22T06:26:46.651Z,2.56
2023-03-22T06:27:47.463Z,2.57
2023-03-22T06:28:48.283Z,2.59
2023-03-22T06:29:49.110Z,2.57
2023-03-22T06:30:50.070Z,2.60
2023-03-22T06:31:50.856Z,2.64
2023-03-22T06:32:51.688Z,2.67
2023-03-22T06:33:54.800Z,2.79
2023-03-22T06:34:53.076Z,2.92
2023-03-22T06:35:53.968Z,3.06
2023-03-22T06:36:54.772Z,3.23
2023-03-22T06:37:55.596Z,3.43
2023-03-22T06:38:56.422Z,3.60
2023-03-22T06:39:57.242Z,3.72
2023-03-22T06:40:58.062Z,3.83
2023-03-22T06:41:58.909Z,3.94
2023-03-22T06:43:02.941Z,4.04
2023-03-22T06:44:00.325Z,4.11
2023-03-22T06:45:01.154Z,4.22
2023-03-22T06:46:02.028Z,4.33
2023-03-22T06:47:02.820Z,4.44
2023-03-22T06:48:03.679Z,4.52
2023-03-22T06:49:04.497Z,4.66
2023-03-22T06:50:05.315Z,4.77
2023-03-22T06:51:06.141Z,4.91
2023-03-22T06:52:06.956Z,5.10
2023-03-22T06:53:07.787Z,5.27
2023-03-22T06:54:08.621Z,5.40
2023-03-22T06:55:09.439Z,5.58
2023-03-22T06:56:10.263Z,5.81
2023-03-22T06:57:11.105Z,6.04
2023-03-22T06:58:11.922Z,6.28
2023-03-22T06:59:12.752Z,6.54
2023-03-22T07:00:13.594Z,6.76
2023-03-22T07:01:14.432Z,6.98
2023-03-22T07:02:15.251Z,7.17
2023-03-22T07:03:16.086Z,7.35
2023-03-22T07:04:17.027Z,7.58
2023-03-22T07:05:17.846Z,7.82
2023-03-22T07:06:18.671Z,8.05
2023-03-22T07:07:19.499Z,8.26
2023-03-22T07:08:20.330Z,8.41
2023-03-22T07:09:21.172Z,8.63
2023-03-22T07:10:21.989Z,8.84
2023-03-22T07:11:22.834Z,8.95
2023-03-22T07:12:23.648Z,9.05
2023-03-22T07:13:24.539Z,9.32
2023-03-22T07:14:25.414Z,9.56
2023-03-22T07:15:26.245Z,9.75
2023-03-22T07:16:27.176Z,9.99
2023-03-22T07:17:27.965Z,10.23
2023-03-22T07:18:28.796Z,10.40
2023-03-22T07:19:29.642Z,10.56
2023-03-22T07:20:30.583Z,10.73
2023-03-22T07:21:31.385Z,10.74
2023-03-22T07:22:32.214Z,10.76
2023-03-22T07:23:33.033Z,10.71
2023-03-22T07:24:33.864Z,10.67
2023-03-22T07:25:34.681Z,10.64
2023-03-22T07:26:35.518Z,10.60
2023-03-22T07:27:36.373Z,10.63
2023-03-22T07:28:37.202Z,10.60
2023-03-22T07:29:38.013Z,10.61
2023-03-22T07:30:39.103Z,10.66
2023-03-22T07:31:39.538Z,10.71
2023-03-22T07:32:40.414Z,10.70
2023-03-22T07:33:41.240Z,10.79
2023-03-22T07:34:42.097Z,10.89
2023-03-22T07:35:42.902Z,10.97
2023-03-22T07:36:43.718Z,11.06
2023-03-22T07:37:44.566Z,11.09
2023-03-22T07:38:45.403Z,11.15
2023-03-22T07:39:46.354Z,11.27
2023-03-22T07:40:47.116Z,11.51
2023-03-22T07:41:47.952Z,11.73
2023-03-22T07:42:48.812Z,11.83
2023-03-22T07:43:56.614Z,11.80
2023-03-22T07:44:51.375Z,11.79
2023-03-22T07:45:51.165Z,11.76
2023-03-22T07:46:52.056Z,11.69
2023-03-22T07:47:52.955Z,11.54
2023-03-22T07:48:53.773Z,11.43
2023-03-22T07:49:54.617Z,11.39
2023-03-22T07:50:55.442Z,11.42
2023-03-22T07:51:56.265Z,11.39
2023-03-22T07:52:57.091Z,11.39
2023-03-22T07:53:57.921Z,11.33
2023-03-22T07:54:58.764Z,11.36
2023-03-22T07:55:59.577Z,11.40
2023-03-22T07:57:00.426Z,11.40
2023-03-22T07:58:01.288Z,11.40
2023-03-22T07:59:02.261Z,11.40
2023-03-22T08:00:03.068Z,11.42
2023-03-22T08:01:03.897Z,11.33
2023-03-22T08:02:04.788Z,11.29
2023-03-22T08:03:05.792Z,11.36
2023-03-22T08:04:06.099Z,11.42
2023-03-22T08:05:06.939Z,11.47
2023-03-22T08:06:07.799Z,11.52
2023-03-22T08:07:08.564Z,11.52
2023-03-22T08:08:09.405Z,11.54
2023-03-22T08:09:10.282Z,11.61
2023-03-22T08:10:11.097Z,11.73
2023-03-22T08:11:11.913Z,11.88
2023-03-22T08:12:12.741Z,12.07
2023-03-22T08:13:13.580Z,12.24
2023-03-22T08:14:15.181Z,12.35
2023-03-22T08:15:15.196Z,12.47
2023-03-22T08:16:16.155Z,12.64
2023-03-22T08:17:16.958Z,12.77
2023-03-22T08:18:17.785Z,12.90
2023-03-22T08:19:18.634Z,13.03
2023-03-22T08:20:19.488Z,13.15
2023-03-22T08:21:20.292Z,13.29
2023-03-22T08:22:21.120Z,13.41
2023-03-22T08:23:31.723Z,13.46
2023-03-22T08:24:23.669Z,13.55
2023-03-22T08:25:23.560Z,13.63
2023-03-22T08:26:24.335Z,13.71
2023-03-22T08:27:25.165Z,13.75
2023-03-22T08:28:25.990Z,13.77
2023-03-22T08:29:26.817Z,13.71
2023-03-22T08:30:27.711Z,13.67
2023-03-22T08:31:28.501Z,13.64
2023-03-22T08:32:29.295Z,13.59
2023-03-22T08:33:30.131Z,13.55
2023-03-22T08:34:30.991Z,13.49
2023-03-22T08:35:31.883Z,13.45
2023-03-22T08:36:32.652Z,13.45
2023-03-22T08:37:33.484Z,13.49
2023-03-22T08:38:34.312Z,13.55
2023-03-22T08:39:35.135Z,13.54
2023-03-22T08:40:36.008Z,13.54
2023-03-22T08:41:36.785Z,13.49
2023-03-22T08:42:37.606Z,13.48
2023-03-22T08:43:38.515Z,13.46
2023-03-22T08:44:39.375Z,13.44
2023-03-22T08:45:40.618Z,13.36
2023-03-22T08:46:41.032Z,13.32
2023-03-22T08:47:41.915Z,13.30
2023-03-22T08:48:42.737Z,13.29
2023-03-22T08:49:43.572Z,13.26
2023-03-22T08:50:44.413Z,13.28
2023-03-22T08:51:45.216Z,13.28
2023-03-22T08:52:46.043Z,13.26
2023-03-22T08:53:46.873Z,13.22
2023-03-22T08:54:47.701Z,13.22
2023-03-22T08:55:48.539Z,13.20
2023-03-22T08:56:49.350Z,13.20
2023-03-22T08:57:50.185Z,13.22
2023-03-22T08:58:51.023Z,13.20
2023-03-22T08:59:51.840Z,13.20
2023-03-22T09:00:52.764Z,13.17
2023-03-22T09:01:53.369Z,13.15
2023-03-22T09:02:54.187Z,13.15
2023-03-22T09:03:55.031Z,13.19
2023-03-22T09:04:55.917Z,13.20
2023-03-22T09:05:56.738Z,13.22
2023-03-22T09:06:57.543Z,13.17
2023-03-22T09:08:04.970Z,13.20
2023-03-22T09:09:00.125Z,13.11
2023-03-22T09:09:59.950Z,13.04
2023-03-22T09:11:00.758Z,13.03
2023-03-22T09:12:01.597Z,13.01
2023-03-22T09:13:02.414Z,13.04
2023-03-22T09:14:03.257Z,13.05
2023-03-22T09:15:04.078Z,13.08
2023-03-22T09:16:04.967Z,13.12
2023-03-22T09:17:05.755Z,13.14
2023-03-22T09:18:06.580Z,13.15
2023-03-22T09:19:07.418Z,13.22
2023-03-22T09:20:12.851Z,13.23
2023-03-22T09:21:09.980Z,13.26
2023-03-22T09:22:09.792Z,13.32
2023-03-22T09:23:10.617Z,13.39
2023-03-22T09:24:11.456Z,13.45
2023-03-22T09:25:13.297Z,13.51
2023-03-22T09:26:13.176Z,13.55
2023-03-22T09:27:14.158Z,13.62
2023-03-22T09:28:15.033Z,13.63
2023-03-22T09:29:15.857Z,13.70
2023-03-22T09:30:16.684Z,13.75
2023-03-22T09:31:20.226Z,13.81
2023-03-22T09:32:18.222Z,13.84
2023-03-22T09:33:19.052Z,13.88
2023-03-22T09:34:23.202Z,13.92
2023-03-22T09:35:42.040Z,13.99
2023-03-22T09:36:21.051Z,14.03
2023-03-22T09:37:21.850Z,14.07
2023-03-22T09:38:22.675Z,14.12
2023-03-22T09:39:23.510Z,14.18
2023-03-22T09:40:24.350Z,14.21
2023-03-22T09:41:25.231Z,14.27
2023-03-22T09:42:26.016Z,14.33
2023-03-22T09:43:26.858Z,14.39
2023-03-22T09:44:27.696Z,14.40
2023-03-22T09:45:28.522Z,14.42
2023-03-22T09:46:29.434Z,14.45
2023-03-22T09:47:42.297Z,14.47
2023-03-22T09:48:32.061Z,14.51
2023-03-22T09:49:38.436Z,14.55
2023-03-22T09:50:33.571Z,14.58
2023-03-22T09:51:33.551Z,14.60
2023-03-22T09:52:34.430Z,14.64
2023-03-22T09:53:35.319Z,14.68
2023-03-22T09:54:36.190Z,14.68
2023-03-22T09:55:37.393Z,14.70
2023-03-22T09:56:37.908Z,14.72
2023-03-22T09:57:38.784Z,14.77
2023-03-22T09:58:39.650Z,14.81
2023-03-22T09:59:40.483Z,14.86
2023-03-22T10:00:41.504Z,14.92
2023-03-22T10:01:42.060Z,14.95
2023-03-22T10:02:42.514Z,14.98
2023-03-22T10:03:43.334Z,15.03
2023-03-22T10:04:44.184Z,15.06
2023-03-22T10:05:45.006Z,15.06
2023-03-22T10:06:45.878Z,15.07
2023-03-22T10:07:46.667Z,15.06
2023-03-22T10:08:47.482Z,15.03
2023-03-22T10:09:48.360Z,15.01
2023-03-22T10:10:49.159Z,15.01
2023-03-22T10:11:49.984Z,14.99
2023-03-22T10:12:50.804Z,14.98
2023-03-22T10:13:51.798Z,14.98
2023-03-22T10:14:52.575Z,15.01
2023-03-22T10:15:53.597Z,15.02
2023-03-22T10:16:56.402Z,15.07
2023-03-22T10:17:55.332Z,15.10
2023-03-22T10:18:56.191Z,15.16
2023-03-22T10:19:56.990Z,15.17
2023-03-22T10:20:57.806Z,15.20
2023-03-22T10:21:58.656Z,15.27
2023-03-22T10:22:59.456Z,15.28
2023-03-22T10:24:00.284Z,15.32
2023-03-22T10:25:01.131Z,15.35
2023-03-22T10:26:01.958Z,15.36
2023-03-22T10:27:02.783Z,15.38
2023-03-22T10:28:03.623Z,15.36
2023-03-22T10:29:04.432Z,15.38
2023-03-22T10:30:05.277Z,15.38
2023-03-22T10:31:06.270Z,15.39
2023-03-22T10:32:07.091Z,15.44
2023-03-22T10:33:07.925Z,15.44
2023-03-22T10:34:08.779Z,15.47
2023-03-22T10:35:09.577Z,15.49
2023-03-22T10:36:10.397Z,15.51
2023-03-22T10:37:11.246Z,15.51
2023-03-22T10:38:12.046Z,15.53
2023-03-22T10:39:14.467Z,15.54
2023-03-22T10:40:13.904Z,15.56
2023-03-22T10:41:14.685Z,15.53
2023-03-22T10:42:15.507Z,15.56
2023-03-22T10:43:16.345Z,15.54
2023-03-22T10:44:17.156Z,15.51
2023-03-22T10:45:18.004Z,15.53
2023-03-22T10:46:18.912Z,15.51
2023-03-22T10:47:19.730Z,15.51
2023-03-22T10:48:20.568Z,15.53
2023-03-22T10:49:21.370Z,15.56
2023-03-22T10:50:22.215Z,15.54
2023-03-22T10:51:23.136Z,15.53
2023-03-22T10:52:24.019Z,15.49
2023-03-22T10:53:24.802Z,15.46
2023-03-22T10:54:26.207Z,15.43
2023-03-22T10:55:26.563Z,15.43
2023-03-22T10:56:27.382Z,15.39
2023-03-22T10:57:28.249Z,15.39
2023-03-22T10:58:28.746Z,15.39
2023-03-22T10:59:29.563Z,15.41
2023-03-22T11:00:30.467Z,15.44
2023-03-22T11:01:31.503Z,15.46
2023-03-22T11:02:32.108Z,15.49
2023-03-22T11:03:32.461Z,15.51
2023-03-22T11:04:33.279Z,15.56
2023-03-22T11:05:34.117Z,15.59
2023-03-22T11:06:34.946Z,15.60
2023-03-22T11:07:35.797Z,15.62
2023-03-22T11:08:36.608Z,15.64
2023-03-22T11:09:37.449Z,15.64
2023-03-22T11:10:38.304Z,15.67
2023-03-22T11:11:39.102Z,15.68
2023-03-22T11:12:40.201Z,15.71
2023-03-22T11:13:40.482Z,15.71
2023-03-22T11:14:41.302Z,15.71
2023-03-22T11:15:42.344Z,15.72
2023-03-22T11:16:42.752Z,15.68
2023-03-22T11:17:44.409Z,15.74
2023-03-22T11:18:44.232Z,15.72
2023-03-22T11:19:45.041Z,15.69
2023-03-22T11:20:45.909Z,15.69
2023-03-22T11:21:46.729Z,15.68
2023-03-22T11:22:47.558Z,15.65
2023-03-22T11:23:48.367Z,15.67
2023-03-22T11:24:49.187Z,15.69
2023-03-22T11:25:50.032Z,15.69
2023-03-22T11:26:50.855Z,15.71
2023-03-22T11:27:51.699Z,15.74
2023-03-22T11:28:52.515Z,15.75
2023-03-22T11:29:53.350Z,15.78
2023-03-22T11:30:54.182Z,15.82
2023-03-22T11:31:56.109Z,15.83
2023-03-22T11:32:55.682Z,15.83
2023-03-22T11:33:56.668Z,15.84
2023-03-22T11:34:57.470Z,15.84
2023-03-22T11:35:58.392Z,15.87
2023-03-22T11:36:59.177Z,15.87
2023-03-22T11:38:00.040Z,15.87
2023-03-22T11:39:00.840Z,15.93
2023-03-22T11:40:01.687Z,15.93
2023-03-22T11:41:02.504Z,15.93
2023-03-22T11:42:03.335Z,15.96
2023-03-22T11:43:04.160Z,15.94
2023-03-22T11:44:04.984Z,15.96
2023-03-22T11:45:05.809Z,15.96
2023-03-22T11:46:06.711Z,15.96
2023-03-22T11:47:07.515Z,15.97
2023-03-22T11:48:08.509Z,16.01
2023-03-22T11:49:08.890Z,16.01
2023-03-22T11:50:10.715Z,16.01
2023-03-22T11:51:12.158Z,16.02
2023-03-22T11:52:11.458Z,16.02
2023-03-22T11:53:12.469Z,16.01
2023-03-22T11:54:13.268Z,16.01
2023-03-22T11:55:14.077Z,16.01
2023-03-22T11:56:14.935Z,16.01
2023-03-22T11:57:15.753Z,16.00
2023-03-22T11:58:16.590Z,16.01
2023-03-22T11:59:17.431Z,16.04
2023-03-22T12:00:18.239Z,16.07
2023-03-22T12:01:19.073Z,16.07
2023-03-22T12:02:19.942Z,16.08
2023-03-22T12:03:20.834Z,16.08
2023-03-22T12:04:21.748Z,16.08
2023-03-22T12:05:22.566Z,16.05
2023-03-22T12:06:23.435Z,16.08
2023-03-22T12:07:24.228Z,16.07
2023-03-22T12:08:25.081Z,16.07
2023-03-22T12:09:25.897Z,16.08
2023-03-22T12:10:26.730Z,16.09
2023-03-22T12:11:27.566Z,16.14
2023-03-22T12:12:28.381Z,16.20
2023-03-22T12:13:29.232Z,16.27
2023-03-22T12:14:30.058Z,16.28
2023-03-22T12:15:30.888Z,16.31
2023-03-22T12:16:31.856Z,16.33
2023-03-22T12:17:32.725Z,16.35
2023-03-22T12:18:33.516Z,16.35
2023-03-22T12:19:34.337Z,16.35
2023-03-22T12:20:35.342Z,16.35
2023-03-22T12:21:36.130Z,16.41
2023-03-22T12:22:36.988Z,16.43
2023-03-22T12:23:37.850Z,16.43
2023-03-22T12:24:38.645Z,16.48
2023-03-22T12:25:39.800Z,16.48
2023-03-22T12:26:40.231Z,16.49
2023-03-22T12:27:41.076Z,16.52
2023-03-22T12:28:41.895Z,16.56
2023-03-22T12:29:42.722Z,16.57
2023-03-22T12:30:43.574Z,16.60
2023-03-22T12:31:44.534Z,16.63
2023-03-22T12:32:45.350Z,16.61
2023-03-22T12:33:46.161Z,16.60
2023-03-22T12:34:47.013Z,16.64
2023-03-22T12:35:47.866Z,16.64
2023-03-22T12:36:48.720Z,16.66
2023-03-22T12:37:49.547Z,16.67
2023-03-22T12:38:50.406Z,16.67
2023-03-22T12:39:51.258Z,16.67
2023-03-22T12:40:52.072Z,16.67
2023-03-22T12:41:52.970Z,16.70
2023-03-22T12:42:56.767Z,16.73
2023-03-22T12:43:55.454Z,16.70
2023-03-22T12:45:04.763Z,16.70
2023-03-22T12:45:56.998Z,16.67
2023-03-22T12:46:56.910Z,16.67
2023-03-22T12:47:57.761Z,16.64
2023-03-22T12:48:58.665Z,16.66
2023-03-22T12:49:59.449Z,16.66
2023-03-22T12:51:00.295Z,16.67
2023-03-22T12:52:01.121Z,16.67
2023-03-22T12:53:01.961Z,16.71
2023-03-22T12:54:02.793Z,16.71
2023-03-22T12:55:03.801Z,16.68
2023-03-22T12:56:04.558Z,16.67
2023-03-22T12:57:05.394Z,16.68
2023-03-22T12:58:06.227Z,16.70
2023-03-22T12:59:07.085Z,16.68
2023-03-22T13:00:07.895Z,16.68
2023-03-22T13:01:08.800Z,16.70
2023-03-22T13:02:09.586Z,16.71
2023-03-22T13:03:10.909Z,16.75
2023-03-22T13:04:11.270Z,16.76
2023-03-22T13:05:12.065Z,16.82
2023-03-22T13:06:12.889Z,16.86
2023-03-22T13:07:13.733Z,16.89
2023-03-22T13:08:14.547Z,16.91
2023-03-22T13:09:15.422Z,16.94
2023-03-22T13:10:16.312Z,16.94
2023-03-22T13:11:17.106Z,16.94
2023-03-22T13:12:18.098Z,16.94
2023-03-22T13:13:18.890Z,16.97
2023-03-22T13:14:19.814Z,16.94
2023-03-22T13:15:25.845Z,16.96
2023-03-22T13:16:22.343Z,16.93
2023-03-22T13:17:22.220Z,16.91